Time;durP1;ratioP1;P1;durP2;ratioP2;P2;SDS_P1;SDS_P2;PMS_P1;PMS_P2;Temp;Humidity;BMP_temperature;BMP_pressure;BME280_temperature;BME280_humidity;BME280_pressure;Samples;Min_cycle;Max_cycle;Signal;HPM_P1;HPM_P2
2023/08/28 00:01:37;;;;;;;4.82;4.10;;;;;;;;;;5093004;28;20048;-89
2023/08/28 00:04:03;;;;;;;5.47;4.20;;;;;;;;;;5058160;28;20421;-89
2023/08/28 00:06:28;;;;;;;6.55;4.72;;;;;;;;;;5092683;28;20487;-89
2023/08/28 00:08:54;;;;;;;5.43;4.40;;;;;;;;;;5075964;28;20079;-89
2023/08/28 00:11:19;;;;;;;6.30;4.03;;;;;;;;;;5076490;28;20036;-89
2023/08/28 00:13:44;;;;;;;5.05;4.22;;;;;;;;;;5062379;28;20038;-89
2023/08/28 00:16:10;;;;;;;5.28;3.92;;;;;;;;;;5095777;28;20039;-90
2023/08/28 00:18:36;;;;;;;5.50;3.97;;;;;;;;;;5096314;28;20047;-89
2023/08/28 00:21:02;;;;;;;6.00;4.18;;;;;;;;;;5078209;28;20059;-90
2023/08/28 00:23:32;;;;;;;4.72;4.18;;;;;;;;;;5095728;28;20475;-89
2023/08/28 00:25:59;;;;;;;5.88;4.57;;;;;;;;;;5097326;28;20052;-89
2023/08/28 00:28:24;;;;;;;4.43;3.70;;;;;;;;;;5096781;28;20043;-89
2023/08/28 00:30:50;;;;;;;4.85;4.25;;;;;;;;;;5096828;28;20044;-90
2023/08/28 00:33:15;;;;;;;5.68;3.63;;;;;;;;;;5095358;28;20491;-90
2023/08/28 00:35:42;;;;;;;5.10;4.00;;;;;;;;;;5095047;28;20517;-89
2023/08/28 00:38:09;;;;;;;4.97;4.15;;;;;;;;;;5094962;28;20097;-89
2023/08/28 00:40:38;;;;;;;4.28;3.83;;;;;;;;;;5095739;28;20031;-89
2023/08/28 00:43:03;;;;;;;5.93;3.65;;;;;;;;;;5097023;28;20032;-90
2023/08/28 00:45:29;;;;;;;6.78;4.32;;;;;;;;;;5095873;28;20032;-89
2023/08/28 00:47:55;;;;;;;7.47;3.70;;;;;;;;;;5079188;28;20028;-89
2023/08/28 00:50:20;;;;;;;4.70;3.88;;;;;;;;;;5079356;28;20040;-89
2023/08/28 00:52:46;;;;;;;6.13;3.55;;;;;;;;;;5095592;28;20032;-90
2023/08/28 00:55:11;;;;;;;7.38;4.30;;;;;;;;;;5078669;28;20035;-89
2023/08/28 00:57:37;;;;;;;6.80;3.75;;;;;;;;;;5078400;28;20092;-89
2023/08/28 01:00:05;;;;;;;5.03;3.42;;;;;;;;;;5078410;28;20040;-89
2023/08/28 01:02:30;;;;;;;6.55;3.65;;;;;;;;;;5079182;28;20024;-89
2023/08/28 01:04:56;;;;;;;4.32;3.10;;;;;;;;;;5078417;28;20035;-90
2023/08/28 01:07:22;;;;;;;6.25;3.35;;;;;;;;;;5096988;28;20031;-90
2023/08/28 01:10:00;;;;;;;4.57;3.40;;;;;;;;;;5095770;28;20145;-89
2023/08/28 01:12:43;;;;;;;6.03;3.25;;;;;;;;;;5095280;28;20036;-90
2023/08/28 01:15:09;;;;;;;5.10;3.28;;;;;;;;;;5096056;28;20115;-90
2023/08/28 01:17:35;;;;;;;4.97;3.25;;;;;;;;;;5095404;28;20173;-88
2023/08/28 01:20:00;;;;;;;4.65;3.22;;;;;;;;;;5074393;28;20055;-88
2023/08/28 01:22:28;;;;;;;5.97;3.25;;;;;;;;;;5094239;28;20507;-90
2023/08/28 01:25:09;;;;;;;5.00;3.13;;;;;;;;;;5058087;28;20059;-80
2023/08/28 01:27:35;;;;;;;5.70;3.08;;;;;;;;;;5070925;28;20035;-80
2023/08/28 01:30:07;;;;;;;4.68;3.10;;;;;;;;;;5091465;28;20024;-81
2023/08/28 01:32:34;;;;;;;11.95;3.30;;;;;;;;;;5092324;28;20465;-81
2023/08/28 01:34:59;;;;;;;4.57;3.13;;;;;;;;;;5091346;28;20038;-81
2023/08/28 01:37:25;;;;;;;8.70;3.50;;;;;;;;;;5075018;28;20036;-81
2023/08/28 01:39:52;;;;;;;4.15;2.47;;;;;;;;;;5075437;28;20184;-80
2023/08/28 01:42:17;;;;;;;4.53;3.00;;;;;;;;;;5092875;28;20118;-79
2023/08/28 01:44:43;;;;;;;5.30;2.63;;;;;;;;;;5092515;28;20032;-79
2023/08/28 01:47:09;;;;;;;3.83;2.88;;;;;;;;;;5075980;28;20044;-78
2023/08/28 01:49:34;;;;;;;3.95;3.10;;;;;;;;;;5082450;28;20573;-78
2023/08/28 01:52:00;;;;;;;5.55;2.88;;;;;;;;;;5081562;28;20028;-79
2023/08/28 01:54:26;;;;;;;4.22;2.92;;;;;;;;;;5100178;28;20082;-79
2023/08/28 01:56:52;;;;;;;6.03;3.15;;;;;;;;;;5099734;28;20036;-79
2023/08/28 01:59:17;;;;;;;4.07;3.00;;;;;;;;;;5079101;28;20395;-78
2023/08/28 02:01:43;;;;;;;6.10;2.90;;;;;;;;;;5094491;28;20047;-78
2023/08/28 02:04:08;;;;;;;4.50;2.90;;;;;;;;;;5097312;28;20016;-78
2023/08/28 02:06:34;;;;;;;4.82;3.25;;;;;;;;;;5099562;28;20168;-78
2023/08/28 02:08:59;;;;;;;6.15;3.50;;;;;;;;;;5066891;28;20024;-78
2023/08/28 02:11:26;;;;;;;5.55;3.63;;;;;;;;;;5080505;28;20036;-79
2023/08/28 02:13:52;;;;;;;4.53;3.20;;;;;;;;;;5099630;28;20027;-78
2023/08/28 02:16:17;;;;;;;3.35;2.92;;;;;;;;;;5081301;28;20471;-78
2023/08/28 02:18:43;;;;;;;8.93;3.80;;;;;;;;;;5096910;28;20036;-78
2023/08/28 02:21:08;;;;;;;4.75;3.40;;;;;;;;;;5080116;28;20043;-78
2023/08/28 02:23:34;;;;;;;7.10;3.30;;;;;;;;;;5097043;28;20023;-78
2023/08/28 02:26:00;;;;;;;6.57;3.65;;;;;;;;;;5090699;28;20052;-78
2023/08/28 02:28:25;;;;;;;4.65;3.38;;;;;;;;;;5094471;28;20124;-77
2023/08/28 02:30:51;;;;;;;4.07;3.40;;;;;;;;;;5073663;28;20038;-78
2023/08/28 02:33:16;;;;;;;5.47;3.33;;;;;;;;;;5097230;28;20020;-79
2023/08/28 02:35:42;;;;;;;4.45;3.45;;;;;;;;;;5102076;28;20089;-79
2023/08/28 02:38:09;;;;;;;5.45;3.50;;;;;;;;;;5103432;28;20450;-79
2023/08/28 02:40:36;;;;;;;4.32;3.35;;;;;;;;;;5102199;28;20028;-79
2023/08/28 02:43:05;;;;;;;5.60;3.58;;;;;;;;;;5085808;28;20058;-79
2023/08/28 02:45:34;;;;;;;4.53;3.70;;;;;;;;;;5086163;28;20040;-78
2023/08/28 02:48:00;;;;;;;5.20;3.70;;;;;;;;;;5098182;28;20035;-79
2023/08/28 02:50:25;;;;;;;5.32;3.95;;;;;;;;;;5100080;28;20032;-78
2023/08/28 02:52:51;;;;;;;5.78;3.72;;;;;;;;;;5085215;28;20043;-78
2023/08/28 02:55:16;;;;;;;7.05;3.60;;;;;;;;;;5104369;28;20039;-79
2023/08/28 02:57:42;;;;;;;7.03;4.10;;;;;;;;;;5115871;28;20030;-79
2023/08/28 03:00:08;;;;;;;6.20;3.75;;;;;;;;;;5110810;28;20052;-78
2023/08/28 03:02:33;;;;;;;6.30;3.90;;;;;;;;;;5102859;28;20074;-79
2023/08/28 03:04:59;;;;;;;9.73;4.32;;;;;;;;;;5108134;27;20028;-78
2023/08/28 03:07:24;;;;;;;7.70;3.90;;;;;;;;;;5078634;28;20364;-78
2023/08/28 03:09:50;;;;;;;5.10;4.00;;;;;;;;;;5100550;28;20065;-78
2023/08/28 03:12:15;;;;;;;5.60;4.30;;;;;;;;;;5106101;28;20024;-79
2023/08/28 03:14:41;;;;;;;6.13;4.50;;;;;;;;;;5104101;28;20032;-79
2023/08/28 03:17:06;;;;;;;7.40;4.53;;;;;;;;;;5104412;28;20020;-79
2023/08/28 03:19:32;;;;;;;5.45;4.25;;;;;;;;;;5104727;28;20028;-79
2023/08/28 03:21:57;;;;;;;7.60;4.43;;;;;;;;;;5104331;28;20028;-79
2023/08/28 03:24:23;;;;;;;5.97;4.38;;;;;;;;;;5108846;28;20031;-78
2023/08/28 03:26:48;;;;;;;7.15;4.25;;;;;;;;;;5063717;28;20133;-78
2023/08/28 03:29:15;;;;;;;10.27;5.30;;;;;;;;;;5097434;28;20110;-78
2023/08/28 03:31:40;;;;;;;6.13;4.32;;;;;;;;;;5102850;28;20054;-78
2023/08/28 03:34:06;;;;;;;6.45;4.30;;;;;;;;;;5089082;28;20046;-79
2023/08/28 03:36:31;;;;;;;5.63;4.60;;;;;;;;;;5100222;28;20024;-80
2023/08/28 03:38:57;;;;;;;7.47;4.47;;;;;;;;;;5082119;28;20078;-79
2023/08/28 03:41:22;;;;;;;6.03;4.45;;;;;;;;;;5101684;28;20031;-79
2023/08/28 03:43:48;;;;;;;5.30;4.63;;;;;;;;;;5113564;28;20683;-79
2023/08/28 03:46:13;;;;;;;7.57;4.57;;;;;;;;;;5104524;28;20613;-78
2023/08/28 03:48:39;;;;;;;5.82;4.40;;;;;;;;;;5085377;28;20434;-79
2023/08/28 03:51:04;;;;;;;5.22;4.10;;;;;;;;;;5096764;28;20051;-79
2023/08/28 03:53:30;;;;;;;5.82;4.20;;;;;;;;;;5098865;28;20058;-78
2023/08/28 03:55:55;;;;;;;6.65;4.07;;;;;;;;;;5097910;28;20087;-78
2023/08/28 03:58:22;;;;;;;5.82;4.18;;;;;;;;;;5096087;28;20046;-78
2023/08/28 04:00:50;;;;;;;7.45;4.35;;;;;;;;;;5095261;28;20047;-78
2023/08/28 04:03:16;;;;;;;5.45;3.90;;;;;;;;;;5101504;28;20024;-79
2023/08/28 04:05:42;;;;;;;4.88;3.70;;;;;;;;;;5101671;28;20043;-80
2023/08/28 04:08:08;;;;;;;9.85;4.53;;;;;;;;;;5083319;28;20043;-78
2023/08/28 04:10:33;;;;;;;5.75;3.95;;;;;;;;;;5079689;28;20028;-80
2023/08/28 04:12:59;;;;;;;4.45;3.78;;;;;;;;;;5098744;28;20089;-79
2023/08/28 04:15:24;;;;;;;6.45;4.10;;;;;;;;;;5102014;28;20028;-80
2023/08/28 04:17:50;;;;;;;7.72;4.00;;;;;;;;;;5105116;28;20097;-79
2023/08/28 04:20:15;;;;;;;5.75;3.67;;;;;;;;;;5098268;28;20044;-79
2023/08/28 04:22:41;;;;;;;5.35;4.18;;;;;;;;;;5100271;28;20080;-79
2023/08/28 04:25:07;;;;;;;5.13;3.70;;;;;;;;;;5082461;28;20050;-79
2023/08/28 04:27:33;;;;;;;7.90;4.00;;;;;;;;;;5078236;28;20043;-79
2023/08/28 04:29:58;;;;;;;5.22;3.83;;;;;;;;;;5064709;28;20028;-80
2023/08/28 04:32:24;;;;;;;5.70;3.67;;;;;;;;;;5082471;28;20042;-80
2023/08/28 04:34:50;;;;;;;5.25;3.97;;;;;;;;;;5098604;28;20058;-79
2023/08/28 04:37:15;;;;;;;6.43;3.67;;;;;;;;;;5092624;28;20133;-78
2023/08/28 04:39:40;;;;;;;4.93;3.60;;;;;;;;;;5099329;28;20483;-79
2023/08/28 04:42:06;;;;;;;6.53;3.80;;;;;;;;;;5098701;28;20047;-78
2023/08/28 04:44:32;;;;;;;4.68;4.18;;;;;;;;;;5080014;28;20028;-79
2023/08/28 04:46:59;;;;;;;6.50;4.15;;;;;;;;;;5079200;28;20039;-79
2023/08/28 04:49:25;;;;;;;5.15;4.03;;;;;;;;;;5098317;28;20020;-78
2023/08/28 04:51:51;;;;;;;7.28;4.22;;;;;;;;;;5105819;28;20384;-78
2023/08/28 04:54:17;;;;;;;5.95;4.00;;;;;;;;;;5081610;28;20035;-78
2023/08/28 04:56:42;;;;;;;9.52;4.47;;;;;;;;;;5097420;28;20544;-79
2023/08/28 04:59:08;;;;;;;8.98;5.45;;;;;;;;;;5086847;28;20028;-79
2023/08/28 05:01:33;;;;;;;7.70;5.68;;;;;;;;;;5104269;28;20043;-79
2023/08/28 05:03:59;;;;;;;8.18;5.47;;;;;;;;;;5103908;28;20065;-79
2023/08/28 05:06:24;;;;;;;9.45;5.60;;;;;;;;;;5104138;28;20112;-79
2023/08/28 05:08:51;;;;;;;8.55;6.03;;;;;;;;;;5085063;28;20039;-79
2023/08/28 05:11:17;;;;;;;8.52;5.45;;;;;;;;;;5101595;28;20477;-79
2023/08/28 05:13:42;;;;;;;10.00;6.00;;;;;;;;;;5084593;28;20025;-79
2023/08/28 05:16:08;;;;;;;8.07;5.93;;;;;;;;;;5101653;28;20036;-80
2023/08/28 05:18:33;;;;;;;9.60;5.30;;;;;;;;;;5083844;28;20028;-80
2023/08/28 05:21:02;;;;;;;7.93;6.07;;;;;;;;;;5092341;28;20106;-80
2023/08/28 05:23:27;;;;;;;9.75;5.88;;;;;;;;;;5076959;28;20024;-80
2023/08/28 05:25:53;;;;;;;9.40;5.35;;;;;;;;;;5083936;28;20388;-80
2023/08/28 05:28:19;;;;;;;9.00;5.97;;;;;;;;;;5081736;28;20028;-80
2023/08/28 05:30:45;;;;;;;10.35;5.60;;;;;;;;;;5101121;28;20043;-80
2023/08/28 05:33:11;;;;;;;7.63;5.50;;;;;;;;;;5092812;28;20063;-79
2023/08/28 05:35:38;;;;;;;7.05;5.32;;;;;;;;;;5099562;28;20036;-79
2023/08/28 05:38:04;;;;;;;11.52;6.47;;;;;;;;;;5099651;28;20024;-81
2023/08/28 05:40:30;;;;;;;8.98;5.75;;;;;;;;;;5086632;28;20032;-79
2023/08/28 05:42:56;;;;;;;8.13;5.32;;;;;;;;;;5102249;28;20436;-79
2023/08/28 05:45:21;;;;;;;11.23;5.35;;;;;;;;;;5115222;28;20028;-79
2023/08/28 05:47:47;;;;;;;8.13;5.30;;;;;;;;;;5110441;28;20036;-79
2023/08/28 05:50:12;;;;;;;8.02;5.80;;;;;;;;;;5103991;28;20044;-79
2023/08/28 05:52:38;;;;;;;8.52;5.30;;;;;;;;;;5104990;28;20119;-79
2023/08/28 05:55:04;;;;;;;7.97;5.47;;;;;;;;;;5103776;28;20477;-79
2023/08/28 05:57:31;;;;;;;11.15;5.25;;;;;;;;;;5086893;28;20147;-80
2023/08/28 05:59:56;;;;;;;8.68;5.60;;;;;;;;;;5086259;28;20059;-80
2023/08/28 06:02:23;;;;;;;9.25;5.68;;;;;;;;;;5087148;28;20097;-80
2023/08/28 06:04:51;;;;;;;7.28;5.10;;;;;;;;;;5091831;28;20032;-80
2023/08/28 06:07:16;;;;;;;8.18;4.82;;;;;;;;;;5102307;28;20031;-79
2023/08/28 06:09:42;;;;;;;7.85;5.38;;;;;;;;;;5097468;28;20032;-79
2023/08/28 06:12:07;;;;;;;14.68;5.53;;;;;;;;;;5103598;28;20071;-80
2023/08/28 06:14:33;;;;;;;11.60;6.32;;;;;;;;;;5102006;28;20028;-79
2023/08/28 06:16:59;;;;;;;9.43;6.70;;;;;;;;;;5101791;28;20103;-79
2023/08/28 06:19:25;;;;;;;9.57;6.03;;;;;;;;;;5081304;28;20037;-78
2023/08/28 06:21:50;;;;;;;12.13;6.63;;;;;;;;;;5081821;28;20024;-80
2023/08/28 06:24:16;;;;;;;10.45;6.25;;;;;;;;;;5101962;28;20058;-79
2023/08/28 06:26:41;;;;;;;9.00;6.50;;;;;;;;;;5098904;28;20055;-79
2023/08/28 06:29:07;;;;;;;12.65;6.50;;;;;;;;;;5095997;28;20036;-79
2023/08/28 06:31:32;;;;;;;10.75;6.55;;;;;;;;;;5103451;28;20035;-79
2023/08/28 06:33:57;;;;;;;10.10;6.57;;;;;;;;;;5100281;28;20395;-79
2023/08/28 06:36:23;;;;;;;10.30;6.80;;;;;;;;;;5099179;28;20032;-80
2023/08/28 06:38:51;;;;;;;8.90;6.40;;;;;;;;;;5100729;28;20036;-78
2023/08/28 06:41:19;;;;;;;9.98;6.53;;;;;;;;;;5104568;28;20024;-80
2023/08/28 06:43:46;;;;;;;16.02;7.18;;;;;;;;;;5103659;28;20440;-79
2023/08/28 06:46:11;;;;;;;12.07;8.18;;;;;;;;;;5105812;28;20202;-79
2023/08/28 06:48:55;;;;;;;14.82;7.50;;;;;;;;;;5102590;28;20093;-80
2023/08/28 06:51:21;;;;;;;11.50;6.72;;;;;;;;;;5099967;28;20115;-80
2023/08/28 06:53:48;;;;;;;9.50;6.57;;;;;;;;;;5110396;28;20055;-80
2023/08/28 06:56:13;;;;;;;10.30;7.00;;;;;;;;;;5099943;28;20502;-80
2023/08/28 06:58:39;;;;;;;12.50;7.00;;;;;;;;;;5100411;28;20031;-80
2023/08/28 07:01:05;;;;;;;14.20;6.82;;;;;;;;;;5097642;28;20129;-80
2023/08/28 07:03:30;;;;;;;8.82;5.47;;;;;;;;;;5080409;28;20020;-80
2023/08/28 07:05:56;;;;;;;11.02;6.63;;;;;;;;;;5099621;28;20063;-80
2023/08/28 07:08:21;;;;;;;10.15;6.93;;;;;;;;;;5097643;28;20032;-80
2023/08/28 07:10:47;;;;;;;11.25;6.18;;;;;;;;;;5090745;28;20127;-79
2023/08/28 07:13:12;;;;;;;8.73;6.30;;;;;;;;;;5107424;28;20028;-80
2023/08/28 07:15:41;;;;;;;13.30;7.38;;;;;;;;;;5089530;28;20039;-80
2023/08/28 07:18:06;;;;;;;7.40;5.60;;;;;;;;;;5097916;28;20031;-80
2023/08/28 07:20:32;;;;;;;7.50;5.03;;;;;;;;;;5097411;28;20024;-80
2023/08/28 07:22:57;;;;;;;10.38;4.82;;;;;;;;;;5093522;28;20028;-80
2023/08/28 07:25:23;;;;;;;8.10;5.68;;;;;;;;;;5099309;28;20142;-80
2023/08/28 07:27:51;;;;;;;11.73;5.30;;;;;;;;;;5080284;28;20028;-80
2023/08/28 07:30:17;;;;;;;8.25;5.25;;;;;;;;;;5104856;28;20031;-80
2023/08/28 07:32:42;;;;;;;7.78;5.32;;;;;;;;;;5101689;28;20726;-80
2023/08/28 07:35:08;;;;;;;10.40;5.45;;;;;;;;;;5110090;28;20036;-80
2023/08/28 07:37:33;;;;;;;6.60;4.68;;;;;;;;;;5098416;28;20040;-80
2023/08/28 07:39:59;;;;;;;5.93;4.18;;;;;;;;;;5099229;28;20067;-80
2023/08/28 07:42:24;;;;;;;11.38;5.03;;;;;;;;;;5098415;28;20024;-79
2023/08/28 07:44:50;;;;;;;10.60;5.30;;;;;;;;;;5102964;28;20046;-79
2023/08/28 07:47:16;;;;;;;8.40;4.40;;;;;;;;;;5106906;28;20047;-79
2023/08/28 07:49:43;;;;;;;8.15;4.93;;;;;;;;;;5097261;28;20139;-79
2023/08/28 07:52:08;;;;;;;9.55;4.50;;;;;;;;;;5089352;28;20031;-80
2023/08/28 07:54:34;;;;;;;8.23;4.00;;;;;;;;;;5095881;28;20084;-80
2023/08/28 07:56:59;;;;;;;7.18;4.20;;;;;;;;;;5082176;28;20063;-81
2023/08/28 07:59:25;;;;;;;6.72;4.10;;;;;;;;;;5098904;28;20099;-80
2023/08/28 08:01:51;;;;;;;6.60;4.22;;;;;;;;;;5096302;28;20035;-80
2023/08/28 08:04:16;;;;;;;8.70;3.80;;;;;;;;;;5094549;28;20032;-81
2023/08/28 08:06:42;;;;;;;9.23;4.70;;;;;;;;;;5090043;28;20090;-81
2023/08/28 08:09:09;;;;;;;6.78;4.43;;;;;;;;;;5075474;28;20126;-80
2023/08/28 08:11:34;;;;;;;6.97;4.85;;;;;;;;;;5094558;28;20032;-81
2023/08/28 08:14:00;;;;;;;6.25;5.10;;;;;;;;;;5096163;28;20073;-79
2023/08/28 08:16:25;;;;;;;5.55;4.05;;;;;;;;;;5095495;28;20028;-80
2023/08/28 08:18:51;;;;;;;7.43;4.18;;;;;;;;;;5092617;28;20044;-81
2023/08/28 08:21:16;;;;;;;5.50;3.70;;;;;;;;;;5073239;28;20020;-80
2023/08/28 08:23:42;;;;;;;5.38;3.55;;;;;;;;;;5092406;28;20037;-78
2023/08/28 08:26:07;;;;;;;6.40;3.90;;;;;;;;;;5100482;28;20052;-80
2023/08/28 08:28:33;;;;;;;6.97;3.55;;;;;;;;;;5086424;28;20050;-81
2023/08/28 08:30:58;;;;;;;5.82;4.10;;;;;;;;;;5096803;28;20032;-78
2023/08/28 08:33:24;;;;;;;5.28;3.42;;;;;;;;;;5099349;28;20461;-80
2023/08/28 08:35:49;;;;;;;4.78;3.20;;;;;;;;;;5101240;28;20043;-81
2023/08/28 08:38:15;;;;;;;6.03;3.15;;;;;;;;;;5099705;28;20039;-80
2023/08/28 08:40:41;;;;;;;4.75;3.50;;;;;;;;;;5101197;28;20055;-80
2023/08/28 08:43:06;;;;;;;8.32;5.32;;;;;;;;;;5100635;28;20239;-79
2023/08/28 08:45:32;;;;;;;6.93;3.47;;;;;;;;;;5115689;28;20050;-79
2023/08/28 08:47:58;;;;;;;4.55;3.53;;;;;;;;;;5110611;28;20039;-80
2023/08/28 08:50:24;;;;;;;7.32;4.07;;;;;;;;;;5100565;28;20052;-80
2023/08/28 08:52:49;;;;;;;5.03;3.10;;;;;;;;;;5114897;28;20040;-80
2023/08/28 08:55:18;;;;;;;7.82;3.60;;;;;;;;;;5085091;28;20028;-80
2023/08/28 08:57:43;;;;;;;10.25;3.40;;;;;;;;;;5093210;28;20057;-79
2023/08/28 09:00:14;;;;;;;5.97;3.28;;;;;;;;;;5099217;28;20431;-80
2023/08/28 09:02:40;;;;;;;5.60;3.55;;;;;;;;;;5093636;28;20360;-81
2023/08/28 09:05:06;;;;;;;5.00;3.00;;;;;;;;;;5106912;28;20032;-81
2023/08/28 09:07:32;;;;;;;5.28;2.97;;;;;;;;;;5102764;28;20487;-80
2023/08/28 09:09:57;;;;;;;6.45;3.50;;;;;;;;;;5102084;28;20024;-80
2023/08/28 09:12:23;;;;;;;4.55;3.00;;;;;;;;;;5099383;28;20498;-82
2023/08/28 09:14:48;;;;;;;5.75;3.40;;;;;;;;;;5087779;28;20016;-82
2023/08/28 09:17:14;;;;;;;4.63;3.55;;;;;;;;;;5079733;28;20041;-81
2023/08/28 09:19:39;;;;;;;6.43;3.50;;;;;;;;;;5103088;28;20012;-82
2023/08/28 09:22:04;;;;;;;7.18;3.88;;;;;;;;;;5104214;28;20080;-82
2023/08/28 09:24:30;;;;;;;8.57;3.20;;;;;;;;;;5101364;28;20436;-81
2023/08/28 09:26:55;;;;;;;7.00;3.10;;;;;;;;;;5099285;28;20035;-81
2023/08/28 09:29:22;;;;;;;7.07;2.92;;;;;;;;;;5092194;28;20036;-82
2023/08/28 09:31:47;;;;;;;4.82;3.20;;;;;;;;;;5091004;28;20044;-82
2023/08/28 09:34:13;;;;;;;7.70;2.60;;;;;;;;;;5091539;28;20035;-81
2023/08/28 09:36:42;;;;;;;8.38;3.33;;;;;;;;;;5084185;28;20032;-82
2023/08/28 09:39:07;;;;;;;6.85;3.42;;;;;;;;;;5067831;28;20534;-81
2023/08/28 09:41:43;;;;;;;4.63;3.17;;;;;;;;;;5091819;28;20115;-80
2023/08/28 09:44:09;;;;;;;4.82;3.30;;;;;;;;;;5073585;28;20088;-80
2023/08/28 09:46:35;;;;;;;8.07;4.20;;;;;;;;;;5094824;28;20063;-80
2023/08/28 09:49:01;;;;;;;5.93;3.35;;;;;;;;;;5095208;28;20564;-81
2023/08/28 09:52:03;;;;;;;5.63;3.15;;;;;;;;;;5094148;28;20036;-80
2023/08/28 09:54:28;;;;;;;7.10;3.10;;;;;;;;;;4995903;28;20037;-81
2023/08/28 09:56:54;;;;;;;4.57;3.35;;;;;;;;;;5074695;28;20070;-81
2023/08/28 09:59:19;;;;;;;6.35;3.58;;;;;;;;;;5089230;28;20380;-82
2023/08/28 10:01:45;;;;;;;5.18;3.60;;;;;;;;;;5093404;28;20039;-81
2023/08/28 10:04:11;;;;;;;7.38;3.58;;;;;;;;;;5072479;28;20078;-81
2023/08/28 10:06:49;;;;;;;7.00;3.20;;;;;;;;;;5086908;28;20028;-84
2023/08/28 10:09:18;;;;;;;8.25;3.03;;;;;;;;;;5090983;28;20249;-82
2023/08/28 10:11:45;;;;;;;4.60;2.70;;;;;;;;;;5090023;28;20499;-84
2023/08/28 10:14:10;;;;;;;5.05;2.88;;;;;;;;;;5074716;28;20040;-83
2023/08/28 10:16:36;;;;;;;6.03;3.22;;;;;;;;;;5091210;28;20119;-83
2023/08/28 10:19:18;;;;;;;6.38;3.17;;;;;;;;;;5091111;28;20443;-81
2023/08/28 10:21:44;;;;;;;4.57;2.90;;;;;;;;;;5071200;28;20029;-82
2023/08/28 10:24:10;;;;;;;3.78;2.58;;;;;;;;;;5090762;28;20076;-81
2023/08/28 10:26:36;;;;;;;5.72;2.70;;;;;;;;;;5073371;28;20119;-81
2023/08/28 10:29:02;;;;;;;3.85;2.50;;;;;;;;;;5092239;28;20127;-81
2023/08/28 10:31:28;;;;;;;4.60;2.92;;;;;;;;;;5071278;28;20078;-80
2023/08/28 10:33:53;;;;;;;5.07;2.70;;;;;;;;;;5083788;28;20028;-81
2023/08/28 10:36:19;;;;;;;6.05;3.00;;;;;;;;;;5089983;28;20032;-82
2023/08/28 10:38:44;;;;;;;5.60;2.70;;;;;;;;;;5070570;28;20502;-80
2023/08/28 10:41:10;;;;;;;4.15;2.65;;;;;;;;;;5090536;28;20028;-81
2023/08/28 10:43:35;;;;;;;2.95;2.25;;;;;;;;;;5073436;28;20043;-82
2023/08/28 10:46:01;;;;;;;4.55;2.50;;;;;;;;;;5090259;28;20043;-81
2023/08/28 10:48:26;;;;;;;4.30;2.78;;;;;;;;;;5090707;28;20043;-81
2023/08/28 10:50:55;;;;;;;7.35;2.90;;;;;;;;;;5090507;28;20041;-81
2023/08/28 10:53:21;;;;;;;4.90;2.53;;;;;;;;;;5091404;28;20027;-82
2023/08/28 10:55:51;;;;;;;5.00;2.42;;;;;;;;;;5093961;28;20032;-81
2023/08/28 10:58:16;;;;;;;6.50;2.33;;;;;;;;;;5090292;28;20028;-81
2023/08/28 11:00:42;;;;;;;4.53;2.50;;;;;;;;;;5090216;28;20317;-81
2023/08/28 11:03:14;;;;;;;4.93;2.50;;;;;;;;;;5056158;28;20028;-80
2023/08/28 11:05:40;;;;;;;3.75;2.40;;;;;;;;;;5090189;28;20115;-80
2023/08/28 11:08:07;;;;;;;5.03;2.53;;;;;;;;;;5072661;28;20645;-80
2023/08/28 11:10:33;;;;;;;3.20;2.15;;;;;;;;;;5090500;28;20556;-83
2023/08/28 11:13:02;;;;;;;4.53;2.20;;;;;;;;;;5090530;28;20027;-81
2023/08/28 11:15:28;;;;;;;4.07;2.22;;;;;;;;;;5092797;28;20054;-81
2023/08/28 11:18:12;;;;;;;3.17;2.28;;;;;;;;;;5091912;28;20035;-82
2023/08/28 11:20:38;;;;;;;5.93;2.60;;;;;;;;;;5091031;28;20189;-81
2023/08/28 11:23:03;;;;;;;3.53;2.28;;;;;;;;;;5091857;28;20028;-81
2023/08/28 11:25:36;;;;;;;4.65;1.73;;;;;;;;;;5091674;28;20062;-81
2023/08/28 11:28:01;;;;;;;4.72;1.85;;;;;;;;;;5088744;28;20497;-81
2023/08/28 11:30:27;;;;;;;3.13;1.70;;;;;;;;;;5090410;28;20032;-81
2023/08/28 11:32:53;;;;;;;3.17;1.92;;;;;;;;;;5072603;28;20052;-81
2023/08/28 11:35:18;;;;;;;4.15;2.30;;;;;;;;;;5069886;28;20039;-81
2023/08/28 11:37:51;;;;;;;12.43;3.13;;;;;;;;;;5086148;28;20044;-80
2023/08/28 11:40:20;;;;;;;8.98;2.70;;;;;;;;;;5090000;28;20035;-81
2023/08/28 11:42:47;;;;;;;6.75;3.00;;;;;;;;;;5090558;28;20051;-81
2023/08/28 11:45:22;;;;;;;2.97;2.10;;;;;;;;;;5090816;28;20379;-81
2023/08/28 11:47:49;;;;;;;3.60;2.10;;;;;;;;;;5088963;28;20050;-81
2023/08/28 11:50:14;;;;;;;5.80;2.45;;;;;;;;;;5089510;28;20031;-81
2023/08/28 11:52:40;;;;;;;3.83;2.03;;;;;;;;;;5091358;28;20040;-81
2023/08/28 11:55:06;;;;;;;4.40;2.22;;;;;;;;;;5091814;28;20463;-81
2023/08/28 11:57:32;;;;;;;7.03;2.45;;;;;;;;;;5090511;28;20066;-81
2023/08/28 11:59:59;;;;;;;4.13;2.53;;;;;;;;;;5089598;28;20024;-81
2023/08/28 12:02:25;;;;;;;5.63;2.30;;;;;;;;;;5072519;28;20441;-81
2023/08/28 12:04:50;;;;;;;5.60;2.50;;;;;;;;;;5090729;28;20031;-81
2023/08/28 12:07:23;;;;;;;4.68;2.50;;;;;;;;;;5086796;28;20486;-81
2023/08/28 12:09:49;;;;;;;3.58;2.35;;;;;;;;;;5081984;28;20068;-81
2023/08/28 12:12:17;;;;;;;4.53;2.97;;;;;;;;;;5091047;28;20050;-81
2023/08/28 12:14:43;;;;;;;4.65;2.40;;;;;;;;;;5095040;28;20111;-82
2023/08/28 12:17:12;;;;;;;3.90;2.30;;;;;;;;;;5093966;28;20103;-81
2023/08/28 12:19:38;;;;;;;5.93;2.42;;;;;;;;;;5095128;28;20044;-81
2023/08/28 12:22:05;;;;;;;3.88;2.00;;;;;;;;;;5093912;28;20471;-81
2023/08/28 12:24:30;;;;;;;6.38;2.15;;;;;;;;;;5084021;28;20510;-81
2023/08/28 12:26:56;;;;;;;4.38;2.20;;;;;;;;;;5089126;28;20024;-83
2023/08/28 12:29:23;;;;;;;4.25;2.30;;;;;;;;;;5093891;28;20043;-81
2023/08/28 12:31:50;;;;;;;3.45;2.50;;;;;;;;;;5094605;28;20039;-81
2023/08/28 12:34:15;;;;;;;5.40;2.60;;;;;;;;;;5093449;28;20036;-82
2023/08/28 12:36:47;;;;;;;3.70;2.15;;;;;;;;;;5093218;28;20544;-81
2023/08/28 12:39:12;;;;;;;5.65;2.30;;;;;;;;;;5092961;28;20044;-81
2023/08/28 12:41:47;;;;;;;4.10;2.45;;;;;;;;;;5093950;28;20027;-81
2023/08/28 12:44:12;;;;;;;5.80;1.95;;;;;;;;;;5094672;28;20036;-81
2023/08/28 12:46:38;;;;;;;4.38;2.40;;;;;;;;;;5094542;28;20035;-81
2023/08/28 12:49:04;;;;;;;3.58;2.28;;;;;;;;;;5094730;28;20039;-81
2023/08/28 12:51:29;;;;;;;4.10;2.05;;;;;;;;;;5093031;28;20035;-81
2023/08/28 12:53:55;;;;;;;3.63;2.40;;;;;;;;;;5093411;28;20111;-81
2023/08/28 12:56:20;;;;;;;4.72;2.45;;;;;;;;;;5094593;28;20031;-81
2023/08/28 12:58:47;;;;;;;2.90;2.13;;;;;;;;;;5096002;28;20032;-80
2023/08/28 13:01:13;;;;;;;5.50;2.40;;;;;;;;;;5095079;28;20149;-81
2023/08/28 13:03:38;;;;;;;6.55;2.25;;;;;;;;;;5094425;28;20056;-81
2023/08/28 13:06:04;;;;;;;3.00;2.20;;;;;;;;;;5093574;28;20497;-81
2023/08/28 13:08:30;;;;;;;6.38;2.58;;;;;;;;;;5093327;28;20078;-81
2023/08/28 13:10:55;;;;;;;9.18;2.30;;;;;;;;;;5073220;28;20060;-80
2023/08/28 13:13:24;;;;;;;4.50;2.20;;;;;;;;;;5085302;28;20115;-81
2023/08/28 13:15:54;;;;;;;3.15;1.88;;;;;;;;;;5076422;28;20046;-81
2023/08/28 13:18:19;;;;;;;3.33;2.20;;;;;;;;;;5093178;28;20048;-80
2023/08/28 13:20:45;;;;;;;5.45;2.08;;;;;;;;;;5093914;28;20020;-81
2023/08/28 13:23:10;;;;;;;2.70;1.85;;;;;;;;;;5094693;28;20560;-80
2023/08/28 13:25:35;;;;;;;2.80;2.00;;;;;;;;;;5093768;28;20067;-80
2023/08/28 13:28:01;;;;;;;3.80;2.10;;;;;;;;;;5092969;28;20036;-80
2023/08/28 13:30:27;;;;;;;5.60;2.30;;;;;;;;;;5094951;28;20517;-81
2023/08/28 13:32:52;;;;;;;3.67;2.10;;;;;;;;;;5095128;28;20032;-81
2023/08/28 13:35:18;;;;;;;3.15;2.17;;;;;;;;;;5094332;28;20024;-80
2023/08/28 13:37:43;;;;;;;3.55;2.08;;;;;;;;;;5094515;28;20448;-81
2023/08/28 13:40:09;;;;;;;4.85;2.10;;;;;;;;;;5094655;28;20129;-81
2023/08/28 13:42:34;;;;;;;2.63;1.83;;;;;;;;;;5088928;28;20040;-81
2023/08/28 13:45:00;;;;;;;4.25;1.90;;;;;;;;;;5101258;28;20030;-81
2023/08/28 13:47:27;;;;;;;3.80;1.92;;;;;;;;;;5095045;28;20062;-82
2023/08/28 13:49:52;;;;;;;4.35;2.42;;;;;;;;;;5093479;28;20031;-81
2023/08/28 13:52:18;;;;;;;4.25;2.40;;;;;;;;;;5094519;28;20064;-81
2023/08/28 13:54:44;;;;;;;3.80;2.33;;;;;;;;;;5093491;28;20020;-81
2023/08/28 13:57:09;;;;;;;6.30;2.35;;;;;;;;;;5095230;28;20032;-81
2023/08/28 13:59:34;;;;;;;5.85;2.00;;;;;;;;;;5094161;28;20069;-81
2023/08/28 14:02:00;;;;;;;4.18;2.15;;;;;;;;;;5084889;28;20048;-81
2023/08/28 14:04:25;;;;;;;4.57;1.92;;;;;;;;;;5092961;28;20020;-81
2023/08/28 14:06:51;;;;;;;3.17;1.92;;;;;;;;;;5094342;28;20035;-80
2023/08/28 14:09:17;;;;;;;6.10;2.58;;;;;;;;;;5093399;28;20034;-77
2023/08/28 14:11:42;;;;;;;4.13;2.28;;;;;;;;;;5085381;28;20039;-80
2023/08/28 14:14:08;;;;;;;3.30;2.22;;;;;;;;;;5092293;28;20422;-81
2023/08/28 14:16:33;;;;;;;6.03;2.20;;;;;;;;;;5091937;28;20056;-79
2023/08/28 14:18:59;;;;;;;7.00;2.42;;;;;;;;;;5094421;28;20453;-81
2023/08/28 14:21:24;;;;;;;9.13;2.47;;;;;;;;;;5093548;28;20028;-81
2023/08/28 14:23:50;;;;;;;7.40;2.80;;;;;;;;;;5094981;28;20454;-81
2023/08/28 14:26:15;;;;;;;3.47;2.22;;;;;;;;;;5090186;28;20055;-81
2023/08/28 14:28:42;;;;;;;3.22;2.28;;;;;;;;;;5101847;28;20039;-81
2023/08/28 14:31:07;;;;;;;3.72;2.40;;;;;;;;;;5094614;28;20399;-81
2023/08/28 14:33:33;;;;;;;3.28;2.40;;;;;;;;;;5092890;28;20043;-81
2023/08/28 14:35:58;;;;;;;4.20;2.00;;;;;;;;;;5091807;28;20039;-82